Terminal Aerodrome Forecast
Issued by NWS Cleveland, OH

Home | Current Version | Previous Version | Text Only | Print | Product List | Glossary On
Versions: 1 2 3 4 5 6 7 8 9 10 11 12 13 14 15
000
FTUS41 KCLE 201737
TAFMFD
TAF
KMFD 201737Z 2018/2118 19007KT P6SM SCT045
     FM210600 VRB03KT P6SM SCT200
     FM211000 VRB03KT 5SM BR FEW200
     FM211300 22008KT P6SM SCT050=

USA.gov is the U.S. government's official web portal to all federal, state and local government web resources and services.